sensor_id;sensor_type;location;lat;lon;timestamp;P1;durP1;ratioP1;P2;durP2;ratioP2
76290;SDS011;65100;46.884;17.410;2023-02-14T00:02:08;124.17;;;50.83;;
76290;SDS011;65100;46.884;17.410;2023-02-14T00:04:35;94.45;;;39.75;;
76290;SDS011;65100;46.884;17.410;2023-02-14T00:07:07;79.47;;;32.87;;
76290;SDS011;65100;46.884;17.410;2023-02-14T00:09:33;65.10;;;27.00;;
76290;SDS011;65100;46.884;17.410;2023-02-14T00:11:58;85.60;;;33.83;;
76290;SDS011;65100;46.884;17.410;2023-02-14T00:14:24;125.47;;;47.30;;
76290;SDS011;65100;46.884;17.410;2023-02-14T00:17:08;279.38;;;103.80;;
76290;SDS011;65100;46.884;17.410;2023-02-14T00:19:33;354.37;;;134.20;;
76290;SDS011;65100;46.884;17.410;2023-02-14T00:22:00;176.00;;;71.57;;
76290;SDS011;65100;46.884;17.410;2023-02-14T00:24:26;90.18;;;37.30;;
76290;SDS011;65100;46.884;17.410;2023-02-14T00:26:52;57.70;;;25.17;;
76290;SDS011;65100;46.884;17.410;2023-02-14T00:29:19;59.05;;;24.45;;
76290;SDS011;65100;46.884;17.410;2023-02-14T00:31:49;64.47;;;28.07;;
76290;SDS011;65100;46.884;17.410;2023-02-14T00:34:15;38.90;;;17.65;;
76290;SDS011;65100;46.884;17.410;2023-02-14T00:36:41;32.13;;;14.18;;
76290;SDS011;65100;46.884;17.410;2023-02-14T00:39:09;32.70;;;15.65;;
76290;SDS011;65100;46.884;17.410;2023-02-14T00:41:36;52.22;;;22.83;;
76290;SDS011;65100;46.884;17.410;2023-02-14T00:44:02;35.23;;;16.40;;
76290;SDS011;65100;46.884;17.410;2023-02-14T00:46:28;29.33;;;14.10;;
76290;SDS011;65100;46.884;17.410;2023-02-14T00:48:54;25.97;;;11.80;;
76290;SDS011;65100;46.884;17.410;2023-02-14T00:51:20;25.52;;;11.80;;
76290;SDS011;65100;46.884;17.410;2023-02-14T00:53:46;28.13;;;12.32;;
76290;SDS011;65100;46.884;17.410;2023-02-14T00:56:13;29.30;;;13.70;;
76290;SDS011;65100;46.884;17.410;2023-02-14T00:58:39;30.70;;;12.23;;
76290;SDS011;65100;46.884;17.410;2023-02-14T01:01:05;31.50;;;13.25;;
76290;SDS011;65100;46.884;17.410;2023-02-14T01:03:30;32.50;;;13.82;;
76290;SDS011;65100;46.884;17.410;2023-02-14T01:05:56;31.50;;;14.77;;
76290;SDS011;65100;46.884;17.410;2023-02-14T01:08:22;45.43;;;21.23;;
76290;SDS011;65100;46.884;17.410;2023-02-14T01:10:47;25.80;;;12.77;;
76290;SDS011;65100;46.884;17.410;2023-02-14T01:13:13;31.30;;;11.90;;
76290;SDS011;65100;46.884;17.410;2023-02-14T01:15:39;32.08;;;13.85;;
76290;SDS011;65100;46.884;17.410;2023-02-14T01:18:06;29.83;;;13.10;;
76290;SDS011;65100;46.884;17.410;2023-02-14T01:20:32;27.47;;;12.43;;
76290;SDS011;65100;46.884;17.410;2023-02-14T01:22:59;27.13;;;12.38;;
76290;SDS011;65100;46.884;17.410;2023-02-14T01:25:25;27.48;;;12.27;;
76290;SDS011;65100;46.884;17.410;2023-02-14T01:27:50;27.67;;;12.00;;
76290;SDS011;65100;46.884;17.410;2023-02-14T01:30:16;24.80;;;10.23;;
76290;SDS011;65100;46.884;17.410;2023-02-14T01:32:42;25.57;;;10.73;;
76290;SDS011;65100;46.884;17.410;2023-02-14T01:35:08;28.20;;;12.05;;
76290;SDS011;65100;46.884;17.410;2023-02-14T01:37:34;25.63;;;12.05;;
76290;SDS011;65100;46.884;17.410;2023-02-14T01:40:00;23.93;;;10.17;;
76290;SDS011;65100;46.884;17.410;2023-02-14T01:42:26;22.55;;;8.98;;
76290;SDS011;65100;46.884;17.410;2023-02-14T01:45:00;22.35;;;10.65;;
76290;SDS011;65100;46.884;17.410;2023-02-14T01:47:53;26.33;;;11.55;;
76290;SDS011;65100;46.884;17.410;2023-02-14T01:53:13;24.65;;;11.23;;
76290;SDS011;65100;46.884;17.410;2023-02-14T01:55:45;24.45;;;11.20;;
76290;SDS011;65100;46.884;17.410;2023-02-14T01:58:14;25.27;;;11.85;;
76290;SDS011;65100;46.884;17.410;2023-02-14T02:00:44;25.60;;;11.73;;
76290;SDS011;65100;46.884;17.410;2023-02-14T02:03:42;26.20;;;12.27;;
76290;SDS011;65100;46.884;17.410;2023-02-14T02:06:16;23.13;;;10.38;;
76290;SDS011;65100;46.884;17.410;2023-02-14T02:09:31;24.50;;;10.85;;
76290;SDS011;65100;46.884;17.410;2023-02-14T02:11:34;23.08;;;10.98;;
76290;SDS011;65100;46.884;17.410;2023-02-14T02:14:00;25.27;;;11.70;;
76290;SDS011;65100;46.884;17.410;2023-02-14T02:16:36;25.58;;;10.63;;
76290;SDS011;65100;46.884;17.410;2023-02-14T02:29:48;25.77;;;11.23;;
76290;SDS011;65100;46.884;17.410;2023-02-14T02:32:36;24.35;;;10.00;;
76290;SDS011;65100;46.884;17.410;2023-02-14T02:38:40;20.50;;;9.37;;
76290;SDS011;65100;46.884;17.410;2023-02-14T02:46:40;23.73;;;9.63;;
76290;SDS011;65100;46.884;17.410;2023-02-14T02:52:25;24.20;;;10.37;;
76290;SDS011;65100;46.884;17.410;2023-02-14T02:55:22;22.67;;;10.15;;
76290;SDS011;65100;46.884;17.410;2023-02-14T02:57:53;21.67;;;9.60;;
76290;SDS011;65100;46.884;17.410;2023-02-14T03:00:20;22.15;;;9.80;;
76290;SDS011;65100;46.884;17.410;2023-02-14T03:02:48;21.52;;;10.18;;
76290;SDS011;65100;46.884;17.410;2023-02-14T03:05:35;22.27;;;10.40;;
76290;SDS011;65100;46.884;17.410;2023-02-14T03:08:02;21.60;;;9.85;;
76290;SDS011;65100;46.884;17.410;2023-02-14T03:10:30;23.85;;;9.50;;
76290;SDS011;65100;46.884;17.410;2023-02-14T03:15:30;22.17;;;9.82;;
76290;SDS011;65100;46.884;17.410;2023-02-14T03:18:22;21.83;;;10.20;;
76290;SDS011;65100;46.884;17.410;2023-02-14T03:20:54;23.75;;;10.02;;
76290;SDS011;65100;46.884;17.410;2023-02-14T03:26:38;22.85;;;9.50;;
76290;SDS011;65100;46.884;17.410;2023-02-14T03:37:39;21.05;;;8.95;;
76290;SDS011;65100;46.884;17.410;2023-02-14T03:40:24;19.98;;;8.57;;
76290;SDS011;65100;46.884;17.410;2023-02-14T03:42:55;21.38;;;9.68;;
76290;SDS011;65100;46.884;17.410;2023-02-14T03:45:28;20.90;;;8.63;;
76290;SDS011;65100;46.884;17.410;2023-02-14T03:47:57;19.02;;;8.98;;
76290;SDS011;65100;46.884;17.410;2023-02-14T03:50:28;21.08;;;9.55;;
76290;SDS011;65100;46.884;17.410;2023-02-14T03:52:55;22.67;;;9.23;;
76290;SDS011;65100;46.884;17.410;2023-02-14T03:55:25;22.15;;;9.73;;
76290;SDS011;65100;46.884;17.410;2023-02-14T03:58:00;23.20;;;9.70;;
76290;SDS011;65100;46.884;17.410;2023-02-14T04:00:32;22.23;;;9.48;;
76290;SDS011;65100;46.884;17.410;2023-02-14T04:03:03;22.88;;;10.10;;
76290;SDS011;65100;46.884;17.410;2023-02-14T04:05:35;20.30;;;8.68;;
76290;SDS011;65100;46.884;17.410;2023-02-14T04:08:08;20.10;;;8.73;;
76290;SDS011;65100;46.884;17.410;2023-02-14T04:10:35;18.90;;;8.97;;
76290;SDS011;65100;46.884;17.410;2023-02-14T04:13:00;21.33;;;9.25;;
76290;SDS011;65100;46.884;17.410;2023-02-14T04:15:26;22.03;;;9.40;;
76290;SDS011;65100;46.884;17.410;2023-02-14T04:17:51;19.63;;;9.10;;
76290;SDS011;65100;46.884;17.410;2023-02-14T04:20:35;21.65;;;9.23;;
76290;SDS011;65100;46.884;17.410;2023-02-14T04:23:01;29.90;;;12.43;;
76290;SDS011;65100;46.884;17.410;2023-02-14T04:25:27;22.88;;;8.95;;
76290;SDS011;65100;46.884;17.410;2023-02-14T04:27:52;22.97;;;9.90;;
76290;SDS011;65100;46.884;17.410;2023-02-14T04:30:18;21.93;;;9.17;;
76290;SDS011;65100;46.884;17.410;2023-02-14T04:32:45;28.00;;;12.02;;
76290;SDS011;65100;46.884;17.410;2023-02-14T04:35:11;22.90;;;9.43;;
76290;SDS011;65100;46.884;17.410;2023-02-14T04:37:36;21.17;;;9.32;;
76290;SDS011;65100;46.884;17.410;2023-02-14T04:40:02;25.13;;;11.27;;
76290;SDS011;65100;46.884;17.410;2023-02-14T04:42:28;25.38;;;8.68;;
76290;SDS011;65100;46.884;17.410;2023-02-14T04:48:00;24.88;;;10.68;;
76290;SDS011;65100;46.884;17.410;2023-02-14T04:50:25;20.90;;;8.43;;
76290;SDS011;65100;46.884;17.410;2023-02-14T04:52:51;19.00;;;8.03;;
76290;SDS011;65100;46.884;17.410;2023-02-14T04:55:17;20.70;;;9.15;;
76290;SDS011;65100;46.884;17.410;2023-02-14T04:57:43;19.90;;;8.57;;
76290;SDS011;65100;46.884;17.410;2023-02-14T05:00:08;21.07;;;8.87;;
76290;SDS011;65100;46.884;17.410;2023-02-14T05:02:35;19.17;;;8.25;;
76290;SDS011;65100;46.884;17.410;2023-02-14T05:05:01;19.98;;;9.13;;
76290;SDS011;65100;46.884;17.410;2023-02-14T05:07:26;19.23;;;8.83;;
76290;SDS011;65100;46.884;17.410;2023-02-14T05:09:51;20.63;;;9.02;;
76290;SDS011;65100;46.884;17.410;2023-02-14T05:12:17;20.63;;;8.43;;
76290;SDS011;65100;46.884;17.410;2023-02-14T05:14:43;22.25;;;8.90;;
76290;SDS011;65100;46.884;17.410;2023-02-14T05:17:09;22.23;;;9.83;;
76290;SDS011;65100;46.884;17.410;2023-02-14T05:19:34;21.88;;;9.93;;
76290;SDS011;65100;46.884;17.410;2023-02-14T05:22:00;19.47;;;8.20;;
76290;SDS011;65100;46.884;17.410;2023-02-14T05:24:25;19.07;;;8.50;;
76290;SDS011;65100;46.884;17.410;2023-02-14T05:26:51;18.90;;;7.93;;
76290;SDS011;65100;46.884;17.410;2023-02-14T05:29:16;21.77;;;8.87;;
76290;SDS011;65100;46.884;17.410;2023-02-14T05:31:42;20.97;;;9.20;;
76290;SDS011;65100;46.884;17.410;2023-02-14T05:34:07;22.73;;;9.20;;
76290;SDS011;65100;46.884;17.410;2023-02-14T05:36:32;21.27;;;8.90;;
76290;SDS011;65100;46.884;17.410;2023-02-14T05:38:58;26.77;;;9.27;;
76290;SDS011;65100;46.884;17.410;2023-02-14T05:41:23;24.23;;;9.83;;
76290;SDS011;65100;46.884;17.410;2023-02-14T05:43:49;24.80;;;9.10;;
76290;SDS011;65100;46.884;17.410;2023-02-14T05:46:14;23.88;;;9.13;;
76290;SDS011;65100;46.884;17.410;2023-02-14T05:48:40;23.47;;;10.17;;
76290;SDS011;65100;46.884;17.410;2023-02-14T05:51:06;24.17;;;10.07;;
76290;SDS011;65100;46.884;17.410;2023-02-14T05:53:33;29.92;;;12.38;;
76290;SDS011;65100;46.884;17.410;2023-02-14T05:55:59;25.02;;;10.75;;
76290;SDS011;65100;46.884;17.410;2023-02-14T05:58:25;25.70;;;11.23;;
76290;SDS011;65100;46.884;17.410;2023-02-14T06:00:50;21.88;;;9.50;;
76290;SDS011;65100;46.884;17.410;2023-02-14T06:03:16;25.80;;;11.03;;
76290;SDS011;65100;46.884;17.410;2023-02-14T06:05:42;25.73;;;11.90;;
76290;SDS011;65100;46.884;17.410;2023-02-14T06:08:08;25.25;;;11.57;;
76290;SDS011;65100;46.884;17.410;2023-02-14T06:10:33;32.67;;;10.40;;
76290;SDS011;65100;46.884;17.410;2023-02-14T06:12:59;35.10;;;12.07;;
76290;SDS011;65100;46.884;17.410;2023-02-14T06:15:25;37.80;;;11.90;;
76290;SDS011;65100;46.884;17.410;2023-02-14T06:17:51;38.75;;;11.13;;
76290;SDS011;65100;46.884;17.410;2023-02-14T06:20:18;52.13;;;13.80;;
76290;SDS011;65100;46.884;17.410;2023-02-14T06:22:44;52.00;;;15.67;;
76290;SDS011;65100;46.884;17.410;2023-02-14T06:25:09;54.80;;;18.70;;
76290;SDS011;65100;46.884;17.410;2023-02-14T06:27:35;43.90;;;17.87;;
76290;SDS011;65100;46.884;17.410;2023-02-14T06:30:00;45.07;;;17.17;;
76290;SDS011;65100;46.884;17.410;2023-02-14T06:32:25;46.63;;;17.90;;
76290;SDS011;65100;46.884;17.410;2023-02-14T06:34:51;44.28;;;18.20;;
76290;SDS011;65100;46.884;17.410;2023-02-14T06:37:17;39.43;;;15.90;;
76290;SDS011;65100;46.884;17.410;2023-02-14T06:39:44;37.20;;;15.60;;
76290;SDS011;65100;46.884;17.410;2023-02-14T06:42:09;34.47;;;15.97;;
76290;SDS011;65100;46.884;17.410;2023-02-14T06:44:35;45.75;;;18.60;;
76290;SDS011;65100;46.884;17.410;2023-02-14T06:47:00;32.17;;;12.93;;
76290;SDS011;65100;46.884;17.410;2023-02-14T06:49:26;23.33;;;10.57;;
76290;SDS011;65100;46.884;17.410;2023-02-14T06:51:51;26.23;;;11.57;;
76290;SDS011;65100;46.884;17.410;2023-02-14T06:54:17;26.03;;;12.13;;
76290;SDS011;65100;46.884;17.410;2023-02-14T06:56:42;31.47;;;14.23;;
76290;SDS011;65100;46.884;17.410;2023-02-14T06:59:07;36.63;;;15.53;;
76290;SDS011;65100;46.884;17.410;2023-02-14T07:01:33;35.90;;;17.20;;
76290;SDS011;65100;46.884;17.410;2023-02-14T07:03:58;41.00;;;18.40;;
76290;SDS011;65100;46.884;17.410;2023-02-14T07:06:24;44.13;;;20.17;;
76290;SDS011;65100;46.884;17.410;2023-02-14T07:08:49;96.15;;;36.97;;
76290;SDS011;65100;46.884;17.410;2023-02-14T07:11:15;106.67;;;45.87;;
76290;SDS011;65100;46.884;17.410;2023-02-14T07:13:40;94.80;;;42.63;;
76290;SDS011;65100;46.884;17.410;2023-02-14T07:16:07;105.05;;;43.97;;
76290;SDS011;65100;46.884;17.410;2023-02-14T07:18:33;89.77;;;41.63;;
76290;SDS011;65100;46.884;17.410;2023-02-14T07:20:59;99.10;;;44.23;;
76290;SDS011;65100;46.884;17.410;2023-02-14T07:23:45;104.85;;;46.30;;
76290;SDS011;65100;46.884;17.410;2023-02-14T07:26:12;98.65;;;44.30;;
76290;SDS011;65100;46.884;17.410;2023-02-14T07:28:42;104.90;;;49.03;;
76290;SDS011;65100;46.884;17.410;2023-02-14T07:31:08;106.55;;;47.05;;
76290;SDS011;65100;46.884;17.410;2023-02-14T07:33:33;117.30;;;50.00;;
76290;SDS011;65100;46.884;17.410;2023-02-14T07:36:02;101.10;;;43.85;;
76290;SDS011;65100;46.884;17.410;2023-02-14T07:38:29;87.78;;;41.25;;
76290;SDS011;65100;46.884;17.410;2023-02-14T07:40:54;98.40;;;44.50;;
76290;SDS011;65100;46.884;17.410;2023-02-14T07:43:20;81.10;;;37.30;;
76290;SDS011;65100;46.884;17.410;2023-02-14T07:45:45;90.07;;;40.93;;
76290;SDS011;65100;46.884;17.410;2023-02-14T07:48:11;77.70;;;36.55;;
76290;SDS011;65100;46.884;17.410;2023-02-14T07:50:36;74.80;;;35.27;;
76290;SDS011;65100;46.884;17.410;2023-02-14T07:53:02;77.23;;;35.43;;
76290;SDS011;65100;46.884;17.410;2023-02-14T07:55:27;78.85;;;38.30;;
76290;SDS011;65100;46.884;17.410;2023-02-14T07:57:52;69.77;;;32.60;;
76290;SDS011;65100;46.884;17.410;2023-02-14T08:00:18;48.73;;;24.27;;
76290;SDS011;65100;46.884;17.410;2023-02-14T08:02:44;34.28;;;14.98;;
76290;SDS011;65100;46.884;17.410;2023-02-14T08:05:09;25.80;;;11.93;;
76290;SDS011;65100;46.884;17.410;2023-02-14T08:07:35;20.23;;;10.25;;
76290;SDS011;65100;46.884;17.410;2023-02-14T08:10:00;18.33;;;8.53;;
76290;SDS011;65100;46.884;17.410;2023-02-14T08:12:26;20.30;;;9.27;;
76290;SDS011;65100;46.884;17.410;2023-02-14T08:15:10;20.88;;;9.07;;
76290;SDS011;65100;46.884;17.410;2023-02-14T08:17:57;20.98;;;10.20;;
76290;SDS011;65100;46.884;17.410;2023-02-14T08:20:22;22.17;;;9.65;;
76290;SDS011;65100;46.884;17.410;2023-02-14T08:22:48;18.57;;;9.07;;
76290;SDS011;65100;46.884;17.410;2023-02-14T08:25:13;19.63;;;10.10;;
76290;SDS011;65100;46.884;17.410;2023-02-14T08:27:39;21.13;;;9.68;;
76290;SDS011;65100;46.884;17.410;2023-02-14T08:30:04;20.33;;;9.67;;
76290;SDS011;65100;46.884;17.410;2023-02-14T08:32:30;20.17;;;10.05;;
76290;SDS011;65100;46.884;17.410;2023-02-14T08:34:56;19.10;;;9.83;;
76290;SDS011;65100;46.884;17.410;2023-02-14T08:37:21;19.63;;;9.27;;
76290;SDS011;65100;46.884;17.410;2023-02-14T08:39:47;19.27;;;9.65;;
76290;SDS011;65100;46.884;17.410;2023-02-14T08:42:12;20.63;;;9.77;;
76290;SDS011;65100;46.884;17.410;2023-02-14T08:44:38;20.10;;;9.77;;
76290;SDS011;65100;46.884;17.410;2023-02-14T08:47:03;21.27;;;10.13;;
76290;SDS011;65100;46.884;17.410;2023-02-14T08:49:29;22.93;;;10.63;;
76290;SDS011;65100;46.884;17.410;2023-02-14T08:51:54;20.17;;;8.80;;
76290;SDS011;65100;46.884;17.410;2023-02-14T08:54:19;20.20;;;10.37;;
76290;SDS011;65100;46.884;17.410;2023-02-14T08:56:45;23.73;;;11.40;;
76290;SDS011;65100;46.884;17.410;2023-02-14T08:59:10;19.33;;;9.63;;
76290;SDS011;65100;46.884;17.410;2023-02-14T09:01:36;22.87;;;10.83;;
76290;SDS011;65100;46.884;17.410;2023-02-14T09:04:01;23.97;;;10.97;;
76290;SDS011;65100;46.884;17.410;2023-02-14T09:06:27;20.08;;;9.27;;
76290;SDS011;65100;46.884;17.410;2023-02-14T09:08:53;22.38;;;10.77;;
76290;SDS011;65100;46.884;17.410;2023-02-14T09:11:19;21.33;;;9.30;;
76290;SDS011;65100;46.884;17.410;2023-02-14T09:13:46;22.63;;;10.55;;
76290;SDS011;65100;46.884;17.410;2023-02-14T09:16:13;23.25;;;10.27;;
76290;SDS011;65100;46.884;17.410;2023-02-14T09:18:41;21.30;;;10.27;;
76290;SDS011;65100;46.884;17.410;2023-02-14T09:21:08;22.73;;;10.07;;
76290;SDS011;65100;46.884;17.410;2023-02-14T09:23:35;24.40;;;11.25;;
76290;SDS011;65100;46.884;17.410;2023-02-14T09:26:01;23.85;;;12.05;;
76290;SDS011;65100;46.884;17.410;2023-02-14T09:28:29;26.17;;;12.55;;
76290;SDS011;65100;46.884;17.410;2023-02-14T09:30:56;24.10;;;11.47;;
76290;SDS011;65100;46.884;17.410;2023-02-14T09:33:22;22.88;;;10.77;;
76290;SDS011;65100;46.884;17.410;2023-02-14T09:35:48;23.35;;;11.38;;
76290;SDS011;65100;46.884;17.410;2023-02-14T09:38:14;25.67;;;11.00;;
76290;SDS011;65100;46.884;17.410;2023-02-14T09:40:42;24.23;;;10.75;;
76290;SDS011;65100;46.884;17.410;2023-02-14T09:45:54;24.88;;;10.57;;
76290;SDS011;65100;46.884;17.410;2023-02-14T09:48:28;25.15;;;12.18;;
76290;SDS011;65100;46.884;17.410;2023-02-14T09:51:09;25.47;;;11.17;;
76290;SDS011;65100;46.884;17.410;2023-02-14T09:53:45;24.30;;;11.18;;
76290;SDS011;65100;46.884;17.410;2023-02-14T09:59:28;30.98;;;13.50;;
76290;SDS011;65100;46.884;17.410;2023-02-14T10:02:19;25.83;;;11.88;;
76290;SDS011;65100;46.884;17.410;2023-02-14T10:04:51;26.27;;;11.93;;
76290;SDS011;65100;46.884;17.410;2023-02-14T10:07:22;26.65;;;11.55;;
76290;SDS011;65100;46.884;17.410;2023-02-14T10:15:16;26.20;;;12.00;;
76290;SDS011;65100;46.884;17.410;2023-02-14T10:20:37;25.30;;;11.57;;
76290;SDS011;65100;46.884;17.410;2023-02-14T10:26:06;26.23;;;12.25;;
76290;SDS011;65100;46.884;17.410;2023-02-14T10:28:39;26.98;;;13.27;;
76290;SDS011;65100;46.884;17.410;2023-02-14T10:31:22;29.53;;;13.37;;
76290;SDS011;65100;46.884;17.410;2023-02-14T10:34:42;18.85;;;8.13;;
76290;SDS011;65100;46.884;17.410;2023-02-14T10:42:07;26.73;;;11.13;;
76290;SDS011;65100;46.884;17.410;2023-02-14T10:44:53;15.87;;;7.03;;
76290;SDS011;65100;46.884;17.410;2023-02-14T10:47:42;24.20;;;9.95;;
76290;SDS011;65100;46.884;17.410;2023-02-14T10:50:19;25.02;;;10.60;;
76290;SDS011;65100;46.884;17.410;2023-02-14T10:52:59;24.42;;;10.57;;
76290;SDS011;65100;46.884;17.410;2023-02-14T10:55:54;24.55;;;10.32;;
76290;SDS011;65100;46.884;17.410;2023-02-14T10:58:25;24.10;;;10.07;;
76290;SDS011;65100;46.884;17.410;2023-02-14T11:01:00;22.60;;;9.52;;
76290;SDS011;65100;46.884;17.410;2023-02-14T11:03:29;25.05;;;10.43;;
76290;SDS011;65100;46.884;17.410;2023-02-14T11:05:56;18.90;;;8.45;;
76290;SDS011;65100;46.884;17.410;2023-02-14T11:08:32;22.40;;;9.40;;
76290;SDS011;65100;46.884;17.410;2023-02-14T11:13:39;24.63;;;10.88;;
76290;SDS011;65100;46.884;17.410;2023-02-14T11:16:07;26.40;;;10.98;;
76290;SDS011;65100;46.884;17.410;2023-02-14T11:18:40;19.90;;;8.80;;
76290;SDS011;65100;46.884;17.410;2023-02-14T11:21:13;23.92;;;10.90;;
76290;SDS011;65100;46.884;17.410;2023-02-14T11:23:45;18.30;;;7.68;;
76290;SDS011;65100;46.884;17.410;2023-02-14T11:26:15;24.13;;;11.23;;
76290;SDS011;65100;46.884;17.410;2023-02-14T11:28:57;17.25;;;8.57;;
76290;SDS011;65100;46.884;17.410;2023-02-14T11:31:29;27.43;;;12.63;;
76290;SDS011;65100;46.884;17.410;2023-02-14T11:34:01;22.60;;;10.27;;
76290;SDS011;65100;46.884;17.410;2023-02-14T11:36:29;20.75;;;9.23;;
76290;SDS011;65100;46.884;17.410;2023-02-14T11:39:04;29.52;;;13.45;;
76290;SDS011;65100;46.884;17.410;2023-02-14T11:41:49;27.45;;;12.55;;
76290;SDS011;65100;46.884;17.410;2023-02-14T11:44:19;24.90;;;10.90;;
76290;SDS011;65100;46.884;17.410;2023-02-14T11:46:48;24.83;;;11.90;;
76290;SDS011;65100;46.884;17.410;2023-02-14T11:49:22;29.15;;;13.02;;
76290;SDS011;65100;46.884;17.410;2023-02-14T11:51:48;26.23;;;12.25;;
76290;SDS011;65100;46.884;17.410;2023-02-14T12:00:02;26.60;;;11.52;;
76290;SDS011;65100;46.884;17.410;2023-02-14T12:02:39;25.63;;;11.48;;
76290;SDS011;65100;46.884;17.410;2023-02-14T12:07:55;25.00;;;11.43;;
76290;SDS011;65100;46.884;17.410;2023-02-14T12:10:29;24.70;;;11.10;;
76290;SDS011;65100;46.884;17.410;2023-02-14T12:12:58;24.23;;;10.45;;
76290;SDS011;65100;46.884;17.410;2023-02-14T12:23:47;18.50;;;7.88;;
76290;SDS011;65100;46.884;17.410;2023-02-14T12:26:32;23.33;;;10.60;;
76290;SDS011;65100;46.884;17.410;2023-02-14T12:31:46;24.85;;;10.55;;
76290;SDS011;65100;46.884;17.410;2023-02-14T12:34:13;24.33;;;10.33;;
76290;SDS011;65100;46.884;17.410;2023-02-14T12:42:10;26.80;;;11.05;;
76290;SDS011;65100;46.884;17.410;2023-02-14T12:56:34;26.70;;;11.10;;
76290;SDS011;65100;46.884;17.410;2023-02-14T13:05:21;23.95;;;10.85;;
76290;SDS011;65100;46.884;17.410;2023-02-14T13:21:50;25.88;;;11.70;;
76290;SDS011;65100;46.884;17.410;2023-02-14T13:24:19;23.27;;;11.82;;
76290;SDS011;65100;46.884;17.410;2023-02-14T13:26:48;23.88;;;11.73;;
76290;SDS011;65100;46.884;17.410;2023-02-14T13:29:20;25.27;;;11.73;;
76290;SDS011;65100;46.884;17.410;2023-02-14T13:31:50;25.23;;;11.25;;
76290;SDS011;65100;46.884;17.410;2023-02-14T13:34:42;26.77;;;11.93;;
76290;SDS011;65100;46.884;17.410;2023-02-14T13:37:09;24.50;;;12.18;;
76290;SDS011;65100;46.884;17.410;2023-02-14T13:39:37;24.52;;;12.20;;
76290;SDS011;65100;46.884;17.410;2023-02-14T13:42:08;25.77;;;12.27;;
76290;SDS011;65100;46.884;17.410;2023-02-14T13:47:06;23.48;;;11.55;;
76290;SDS011;65100;46.884;17.410;2023-02-14T13:49:33;25.35;;;12.30;;
76290;SDS011;65100;46.884;17.410;2023-02-14T13:52:01;28.35;;;12.23;;
76290;SDS011;65100;46.884;17.410;2023-02-14T13:56:55;24.08;;;11.18;;
76290;SDS011;65100;46.884;17.410;2023-02-14T13:59:26;25.45;;;11.80;;
76290;SDS011;65100;46.884;17.410;2023-02-14T14:04:50;28.50;;;12.95;;
76290;SDS011;65100;46.884;17.410;2023-02-14T14:07:19;24.67;;;11.50;;
76290;SDS011;65100;46.884;17.410;2023-02-14T14:09:55;25.80;;;11.40;;
76290;SDS011;65100;46.884;17.410;2023-02-14T14:19:57;24.10;;;12.57;;
76290;SDS011;65100;46.884;17.410;2023-02-14T14:22:25;25.55;;;12.13;;
76290;SDS011;65100;46.884;17.410;2023-02-14T14:29:53;23.60;;;10.80;;
76290;SDS011;65100;46.884;17.410;2023-02-14T14:35:00;25.27;;;11.65;;
76290;SDS011;65100;46.884;17.410;2023-02-14T14:37:35;25.25;;;11.80;;
76290;SDS011;65100;46.884;17.410;2023-02-14T14:40:17;24.50;;;11.38;;
76290;SDS011;65100;46.884;17.410;2023-02-14T14:45:43;23.07;;;10.27;;
76290;SDS011;65100;46.884;17.410;2023-02-14T14:48:12;23.67;;;11.25;;
76290;SDS011;65100;46.884;17.410;2023-02-14T14:50:43;24.52;;;11.65;;
76290;SDS011;65100;46.884;17.410;2023-02-14T14:53:18;24.05;;;10.60;;
76290;SDS011;65100;46.884;17.410;2023-02-14T14:55:45;24.80;;;11.60;;
76290;SDS011;65100;46.884;17.410;2023-02-14T15:01:05;24.88;;;11.07;;
76290;SDS011;65100;46.884;17.410;2023-02-14T15:03:51;26.80;;;11.70;;
76290;SDS011;65100;46.884;17.410;2023-02-14T15:06:20;25.60;;;10.70;;
76290;SDS011;65100;46.884;17.410;2023-02-14T15:08:46;24.50;;;11.15;;
76290;SDS011;65100;46.884;17.410;2023-02-14T15:11:14;23.63;;;11.13;;
76290;SDS011;65100;46.884;17.410;2023-02-14T15:14:08;25.38;;;11.25;;
76290;SDS011;65100;46.884;17.410;2023-02-14T15:16:45;26.15;;;12.00;;
76290;SDS011;65100;46.884;17.410;2023-02-14T15:19:21;24.10;;;11.37;;
76290;SDS011;65100;46.884;17.410;2023-02-14T15:21:55;25.95;;;11.68;;
76290;SDS011;65100;46.884;17.410;2023-02-14T15:24:21;26.48;;;11.57;;
76290;SDS011;65100;46.884;17.410;2023-02-14T15:30:00;24.67;;;11.65;;
76290;SDS011;65100;46.884;17.410;2023-02-14T15:32:33;24.08;;;10.90;;
76290;SDS011;65100;46.884;17.410;2023-02-14T15:35:01;25.40;;;11.68;;
76290;SDS011;65100;46.884;17.410;2023-02-14T15:37:29;26.13;;;11.13;;
76290;SDS011;65100;46.884;17.410;2023-02-14T15:39:56;25.23;;;11.30;;
76290;SDS011;65100;46.884;17.410;2023-02-14T15:45:35;27.17;;;12.68;;
76290;SDS011;65100;46.884;17.410;2023-02-14T15:47:45;29.27;;;12.68;;
76290;SDS011;65100;46.884;17.410;2023-02-14T15:50:17;25.25;;;11.27;;
76290;SDS011;65100;46.884;17.410;2023-02-14T15:52:45;26.57;;;12.37;;
76290;SDS011;65100;46.884;17.410;2023-02-14T15:55:14;25.58;;;11.25;;
76290;SDS011;65100;46.884;17.410;2023-02-14T15:57:43;26.70;;;12.68;;
76290;SDS011;65100;46.884;17.410;2023-02-14T16:00:16;28.00;;;12.55;;
76290;SDS011;65100;46.884;17.410;2023-02-14T16:02:45;27.23;;;11.93;;
76290;SDS011;65100;46.884;17.410;2023-02-14T16:05:18;30.63;;;12.90;;
76290;SDS011;65100;46.884;17.410;2023-02-14T16:12:54;30.48;;;12.90;;
76290;SDS011;65100;46.884;17.410;2023-02-14T16:15:25;28.17;;;13.15;;
76290;SDS011;65100;46.884;17.410;2023-02-14T16:18:01;25.50;;;11.40;;
76290;SDS011;65100;46.884;17.410;2023-02-14T16:20:40;25.48;;;12.13;;
76290;SDS011;65100;46.884;17.410;2023-02-14T16:23:21;26.23;;;12.65;;
76290;SDS011;65100;46.884;17.410;2023-02-14T16:25:56;25.98;;;12.32;;
76290;SDS011;65100;46.884;17.410;2023-02-14T16:28:22;30.17;;;13.63;;
76290;SDS011;65100;46.884;17.410;2023-02-14T16:30:52;26.65;;;11.98;;
76290;SDS011;65100;46.884;17.410;2023-02-14T16:33:29;25.85;;;11.68;;
76290;SDS011;65100;46.884;17.410;2023-02-14T16:36:10;25.23;;;11.90;;
76290;SDS011;65100;46.884;17.410;2023-02-14T16:38:43;25.93;;;12.17;;
76290;SDS011;65100;46.884;17.410;2023-02-14T16:41:43;29.77;;;13.18;;
76290;SDS011;65100;46.884;17.410;2023-02-14T16:44:10;26.38;;;11.50;;
76290;SDS011;65100;46.884;17.410;2023-02-14T16:46:37;27.35;;;12.13;;
76290;SDS011;65100;46.884;17.410;2023-02-14T16:49:02;28.80;;;12.67;;
76290;SDS011;65100;46.884;17.410;2023-02-14T16:51:28;28.57;;;12.17;;
76290;SDS011;65100;46.884;17.410;2023-02-14T16:53:56;27.45;;;12.00;;
76290;SDS011;65100;46.884;17.410;2023-02-14T16:58:49;27.17;;;12.23;;
76290;SDS011;65100;46.884;17.410;2023-02-14T17:01:15;29.57;;;12.87;;
76290;SDS011;65100;46.884;17.410;2023-02-14T17:03:40;28.38;;;12.02;;
76290;SDS011;65100;46.884;17.410;2023-02-14T17:06:10;29.00;;;12.25;;
76290;SDS011;65100;46.884;17.410;2023-02-14T17:08:39;27.00;;;13.07;;
76290;SDS011;65100;46.884;17.410;2023-02-14T17:11:06;27.70;;;12.13;;
76290;SDS011;65100;46.884;17.410;2023-02-14T17:13:32;28.02;;;13.18;;